RJAAPGUM

Guest
Details From RJAA - NARITA INTL
To PGUM - Guam Intl
Flight Number -
Tags generated
Created
Modified
Stats Distance 1,377 nm / 2,550 km
Max Altitude 35,000 ft / 10,668 m
Waypoints 12
Social Downloads 4
Likes 0
Share VATSIM

Download

Looking for another format? Having issues loading an existing format? Contact us
Advertisement - Login to hide

Notes

Basic altitude profile: - Ascent Rate: 2500ft/min - Ascent Speed: 250kts - Cruise Altitude: 35000ft - Cruise Speed: 420kts - Descent Rate: 1500ft/min - Descent Speed: 250kts Options: - Use NATs: yes - Use PACOTS: yes - Use low airways: yes - Use high airways: yes

Route

RJAA BAFFY B586 SECEL PGUM

ID Type Via Altitude Latitude Longitude Leg Dist Tot Dist Heading (true) Name
O RJAA APT - 0 ft / 0 m 35.77655˚ 140.38277˚ - 0 nm - NARITA INTL
BAFFY FIX - 28,900 ft / 8,809 m 34.47393˚ 139.95069˚ 81 nm 81 nm 195° / 195° -
TALES FIX B586 (AWY-HI) 35,000 ft / 10,668 m 33.70497˚ 140.05591˚ 46 nm 127 nm 174° / 174° -
TEMAR FIX B586 (AWY-HI) 35,000 ft / 10,668 m 33.33878˚ 140.10628˚ 22 nm 149 nm 173° / 173° -
OGASA FIX B586 (AWY-HI) 35,000 ft / 10,668 m 32.30089˚ 140.37019˚ 63 nm 213 nm 168° / 168° -
CADDY FIX B586 (AWY-HI) 35,000 ft / 10,668 m 31.00378˚ 140.70594˚ 79 nm 293 nm 167° / 168° -
UKATA FIX B586 (AWY-HI) 35,000 ft / 10,668 m 30.00389˚ 140.95353˚ 61 nm 354 nm 168° / 168° -
VASKO FIX B586 (AWY-HI) 35,000 ft / 10,668 m 25.00439˚ 142.03694˚ 305 nm 660 nm 169° / 169° -
OMLET FIX B586 (AWY-HI) 35,000 ft / 10,668 m 21.00000˚ 142.99000˚ 246 nm 906 nm 167° / 168° -
PAYEE FIX B586 (AWY-HI) 35,000 ft / 10,668 m 17.71167˚ 144.53500˚ 216 nm 1122 nm 156° / 156° -
SECEL FIX B586 (AWY-HI) 21,200 ft / 6,462 m 15.12722˚ 144.66639˚ 155 nm 1277 nm 177° / 177° -
O PGUM APT - 0 ft / 0 m 13.48387˚ 144.79717˚ 98 nm 1376 nm 176° / 176° Guam Intl

Altitude Profile

Advertisement - Login to hide

Weather


0- 5 10 15 20 25 30 35+ Temperature / ° C

Clouds and Precipitation
Forecast for 2018-05-21 12:00 UTC. Updated 10 minutes ago

Ground ~20,000 ft ~40,000 ft Winds

RJAA

Details ICAO RJAA (NRT)
Name NARITA INTL
Region Japan
Timezone Asia/Tokyo (UTC+9.0)
Stats Elevation 141 ft / 43 m (AMSL)
Location 35.776552° 140.382770°
Runways 2
Magnetic Variation 7.430° W

METAR

RJAA 210930Z 17007KT CAVOK 18/07 Q1019 NOSIG RMK A3009

Decode

TAF

TAF RJAA 210512Z 2106/2212 14005KT 9999 FEW030= TAF RJBB 210506Z 2106/2212 23012KT 9999 FEW030 BECMG 2111/2113 12004KT BECMG 2200/2203 26008KT BECMG 2209/2212 08004KT

Decode

Departure Runways

ID Width Length Bearing (true) Bearing (mag) Surface Threshold Offset Overrun Length
16L 196 ft / 60 m 7,162 ft / 2,183 m 149.61° 157.04° Asphalt 190 ft / 58 m 0 ft / 0 m
16R 196 ft / 60 m 13,142 ft / 4,006 m 149.61° 157.04° Asphalt 0 ft / 0 m 410 ft / 125 m
34L 196 ft / 60 m 13,142 ft / 4,006 m 329.62° 337.05° Asphalt 0 ft / 0 m 415 ft / 126 m
34R 196 ft / 60 m 7,162 ft / 2,183 m 329.62° 337.05° Asphalt 190 ft / 58 m 0 ft / 0 m

PGUM

Details ICAO PGUM (GUM)
Name Guam Intl
Region USA (Guam, Northern Mariana Islands)
Timezone Pacific/Guam (UTC+10.0)
Stats Elevation 298 ft / 91 m (AMSL)
Location 13.483874° 144.797171°
Runways 2
Magnetic Variation 0.718° E

METAR

PGUM 210854Z 11004KT 10SM SCT025 29/27 A2985 RMK AO2 SLP099 T02890267 53014

Decode

TAF

TAF PGUM 210527Z 2106/2212 07005KT P6SM VCSH FEW018 BKN024 TEMPO 2106/2108 5SM SHRA SCT018 OVC024 FM210900 VRB04KT P6SM SCT020

Decode

Destination Runways

ID Width Length Bearing (true) Bearing (mag) Surface Threshold Offset Overrun Length
06L 150 ft / 46 m 10,016 ft / 3,053 m 64.81° 64.09° Asphalt 0 ft / 0 m 1,002 ft / 305 m
06R 150 ft / 46 m 10,015 ft / 3,053 m 64.81° 64.09° Asphalt 0 ft / 0 m 400 ft / 122 m
24L 150 ft / 46 m 10,015 ft / 3,053 m 244.82° 244.10° Asphalt 1,004 ft / 306 m 300 ft / 91 m
24R 150 ft / 46 m 10,016 ft / 3,053 m 244.82° 244.10° Asphalt 0 ft / 0 m 450 ft / 137 m

Approach Navaids

Runway Type Ident Frequency Range Bearing (true) Bearing (mag) Slope Elevation
06L Localiser IGUM 110.30 MHz 18 nm / 33 km 64.81° 64.09° - 298 ft / 91 m (AMSL)
06L Glidescope IGUM 110.30 MHz 10 nm / 19 km 64.81° 64.09° 3.00° 680 ft / 207 m (AMSL)
06L DME IGUM 110.30 MHz 18 nm / 33 km - - - 317 ft / 97 m (AMSL)
06R Localiser IAWD 110.90 MHz 18 nm / 33 km 64.82° 64.10° - 298 ft / 91 m (AMSL)
06R Glidescope IAWD 110.90 MHz 10 nm / 19 km 64.82° 64.10° 3.00° 298 ft / 91 m (AMSL)
06R DME IAWD 110.90 MHz 18 nm / 33 km - - - 298 ft / 91 m (AMSL)

Popular Alternatives